createdAt,value
2019-03-16T00:02:00.598Z,30.75
2019-03-16T00:04:31.696Z,32.48
2019-03-16T00:07:02.727Z,33.67
2019-03-16T00:09:34.035Z,38.75
2019-03-16T00:12:05.190Z,35.40
2019-03-16T00:14:36.164Z,34.45
2019-03-16T00:17:09.357Z,32.17
2019-03-16T00:19:40.346Z,36.93
2019-03-16T00:22:15.603Z,37.28
2019-03-16T00:24:46.545Z,36.40
2019-03-16T00:27:17.587Z,37.80
2019-03-16T00:29:48.381Z,39.42
2019-03-16T00:32:19.296Z,43.68
2019-03-16T00:34:50.339Z,38.28
2019-03-16T00:37:21.484Z,33.18
2019-03-16T00:39:52.226Z,36.58
2019-03-16T00:42:23.556Z,37.55
2019-03-16T00:45:00.539Z,34.60
2019-03-16T00:47:36.780Z,32.03
2019-03-16T00:50:13.070Z,35.45
2019-03-16T00:52:44.525Z,34.90
2019-03-16T00:55:15.998Z,36.28
2019-03-16T00:57:47.082Z,40.12
2019-03-16T01:00:19.018Z,35.23
2019-03-16T01:02:56.081Z,33.98
2019-03-16T01:05:23.534Z,35.33
2019-03-16T01:07:54.645Z,35.48
2019-03-16T01:10:25.930Z,36.10
2019-03-16T01:12:57.955Z,31.62
2019-03-16T01:15:29.170Z,32.08
2019-03-16T01:18:00.895Z,33.83
2019-03-16T01:20:32.470Z,32.53
2019-03-16T01:23:03.827Z,31.62
2019-03-16T01:25:35.021Z,33.73
2019-03-16T01:28:06.260Z,36.68
2019-03-16T01:30:37.346Z,33.08
2019-03-16T01:33:09.366Z,29.52
2019-03-16T01:35:40.408Z,39.48
2019-03-16T01:38:13.093Z,34.83
2019-03-16T01:40:46.114Z,30.57
2019-03-16T01:43:17.183Z,37.90
2019-03-16T01:45:48.953Z,33.98
2019-03-16T01:48:21.274Z,25.88
2019-03-16T01:50:53.323Z,29.98
2019-03-16T01:53:25.553Z,27.05
2019-03-16T01:55:59.672Z,28.42
2019-03-16T01:58:32.768Z,28.32
2019-03-16T02:01:04.246Z,29.72
2019-03-16T02:03:35.957Z,30.15
2019-03-16T02:06:10.938Z,26.33
2019-03-16T02:08:48.468Z,34.10
2019-03-16T02:11:21.516Z,32.60
2019-03-16T02:13:52.584Z,29.27
2019-03-16T02:16:23.282Z,28.80
2019-03-16T02:18:56.938Z,34.55
2019-03-16T02:21:29.803Z,29.80
2019-03-16T02:24:05.524Z,34.20
2019-03-16T02:26:36.211Z,29.45
2019-03-16T02:29:09.039Z,30.90
2019-03-16T02:31:44.272Z,28.65
2019-03-16T02:34:15.732Z,28.87
2019-03-16T02:36:50.250Z,32.30
2019-03-16T02:39:21.480Z,29.77
2019-03-16T02:48:17.493Z,26.12
2019-03-16T02:50:50.856Z,30.15
2019-03-16T02:53:24.044Z,28.60
2019-03-16T02:55:59.077Z,26.90
2019-03-16T02:58:29.785Z,23.45
2019-03-16T03:01:04.218Z,31.45
2019-03-16T03:03:34.977Z,29.82
2019-03-16T03:06:08.241Z,30.75
2019-03-16T03:08:39.644Z,27.77
2019-03-16T03:11:10.909Z,30.08
2019-03-16T03:13:42.488Z,26.30
2019-03-16T03:16:15.116Z,27.58
2019-03-16T03:18:49.333Z,23.73
2019-03-16T03:21:18.696Z,26.07
2019-03-16T03:23:49.473Z,24.32
2019-03-16T03:26:20.397Z,23.15
2019-03-16T03:28:51.717Z,25.77
2019-03-16T03:31:22.782Z,25.80
2019-03-16T03:34:00.854Z,33.08
2019-03-16T03:36:29.822Z,27.32
2019-03-16T03:39:01.623Z,26.45
2019-03-16T03:41:33.461Z,26.50
2019-03-16T03:44:04.946Z,28.80
2019-03-16T03:46:40.018Z,29.95
2019-03-16T03:49:11.792Z,26.25
2019-03-16T03:51:46.330Z,26.07
2019-03-16T03:54:18.049Z,27.27
2019-03-16T03:56:49.159Z,27.07
2019-03-16T03:59:22.778Z,29.05
2019-03-16T04:01:53.874Z,26.07
2019-03-16T04:04:25.089Z,36.83
2019-03-16T04:13:25.542Z,32.83
2019-03-16T04:15:57.899Z,27.13
2019-03-16T04:18:30.100Z,28.80
2019-03-16T04:21:01.588Z,26.07
2019-03-16T04:23:32.875Z,28.10
2019-03-16T04:26:03.869Z,27.73
2019-03-16T04:28:35.170Z,24.65
2019-03-16T04:31:07.413Z,25.80
2019-03-16T04:33:39.588Z,25.30
2019-03-16T04:36:12.995Z,29.30
2019-03-16T04:38:43.892Z,24.40
2019-03-16T04:41:14.907Z,31.93
2019-03-16T04:43:46.090Z,25.32
2019-03-16T04:46:18.458Z,24.30
2019-03-16T04:48:49.441Z,26.00
2019-03-16T04:51:20.362Z,28.25
2019-03-16T04:53:51.514Z,25.50
2019-03-16T04:56:30.147Z,23.77
2019-03-16T04:58:55.450Z,25.40
2019-03-16T05:01:29.282Z,27.90
2019-03-16T05:04:00.446Z,30.92
2019-03-16T05:09:54.067Z,30.85
2019-03-16T05:12:24.970Z,29.92
2019-03-16T05:14:56.154Z,34.53
2019-03-16T05:17:26.955Z,33.08
2019-03-16T05:19:58.729Z,31.95
2019-03-16T05:22:32.563Z,27.40
2019-03-16T05:25:03.607Z,29.35
2019-03-16T05:27:37.426Z,31.73
2019-03-16T05:30:11.033Z,29.70
2019-03-16T05:32:42.152Z,29.48
2019-03-16T05:35:13.424Z,28.45
2019-03-16T05:37:44.265Z,28.65
2019-03-16T05:40:15.680Z,25.45
2019-03-16T05:42:47.183Z,31.87
2019-03-16T05:45:19.206Z,34.98
2019-03-16T05:47:52.838Z,31.75
2019-03-16T05:50:28.662Z,32.70
2019-03-16T05:52:58.326Z,35.17
2019-03-16T05:55:33.265Z,33.08
2019-03-16T05:58:04.459Z,36.93
2019-03-16T06:00:36.521Z,31.90
2019-03-16T06:03:09.502Z,34.10
2019-03-16T06:05:39.868Z,34.15
2019-03-16T06:08:11.872Z,32.45
2019-03-16T06:14:08.420Z,31.65
2019-03-16T06:16:39.930Z,33.50
2019-03-16T06:19:10.992Z,34.18
2019-03-16T06:21:42.248Z,34.73
2019-03-16T06:24:14.153Z,40.55
2019-03-16T06:26:49.695Z,36.90
2019-03-16T06:29:20.859Z,35.30
2019-03-16T06:31:51.848Z,38.90
2019-03-16T06:34:23.983Z,36.73
2019-03-16T06:36:55.214Z,39.45
2019-03-16T06:39:26.225Z,37.13
2019-03-16T06:41:57.522Z,34.10
2019-03-16T06:44:28.766Z,40.67
2019-03-16T06:47:10.463Z,36.40
2019-03-16T06:49:43.530Z,34.35
2019-03-16T06:52:22.681Z,38.20
2019-03-16T06:54:55.611Z,31.93
2019-03-16T06:57:28.463Z,30.70
2019-03-16T07:00:08.413Z,33.00
2019-03-16T07:05:14.712Z,34.03
2019-03-16T07:07:46.708Z,32.75
2019-03-16T07:10:17.858Z,36.65
2019-03-16T07:12:53.039Z,32.85
2019-03-16T07:15:26.872Z,34.00
2019-03-16T07:17:57.939Z,34.78
2019-03-16T07:20:31.797Z,36.88
2019-03-16T07:23:04.023Z,33.10
2019-03-16T07:25:35.583Z,35.78
2019-03-16T07:28:06.730Z,35.95
2019-03-16T07:30:39.651Z,37.23
2019-03-16T07:33:14.536Z,36.48
2019-03-16T07:35:59.220Z,36.60
2019-03-16T07:38:33.026Z,38.65
2019-03-16T07:41:10.349Z,38.42
2019-03-16T07:43:42.269Z,34.35
2019-03-16T07:46:18.683Z,35.40
2019-03-16T07:49:10.277Z,37.80
2019-03-16T07:51:40.523Z,32.78
2019-03-16T07:54:13.234Z,35.40
2019-03-16T07:56:52.634Z,33.00
2019-03-16T07:59:24.674Z,39.55
2019-03-16T08:01:55.616Z,36.83
2019-03-16T08:04:26.630Z,38.67
2019-03-16T08:07:03.794Z,37.93
2019-03-16T08:09:39.236Z,35.80
2019-03-16T08:12:10.593Z,32.80
2019-03-16T08:14:41.920Z,39.05
2019-03-16T08:17:13.308Z,30.37
2019-03-16T08:19:47.598Z,38.30
2019-03-16T08:22:18.993Z,38.90
2019-03-16T08:24:50.020Z,33.10
2019-03-16T08:27:24.871Z,39.63
2019-03-16T08:29:58.787Z,36.77
2019-03-16T08:32:32.213Z,36.77
2019-03-16T08:35:04.589Z,35.92
2019-03-16T08:37:38.524Z,32.90
2019-03-16T08:43:45.932Z,34.70
2019-03-16T08:46:21.861Z,36.55
2019-03-16T08:48:56.127Z,32.20
2019-03-16T08:51:29.091Z,33.55
2019-03-16T08:54:03.708Z,30.75
2019-03-16T08:56:34.960Z,37.17
2019-03-16T08:59:06.074Z,38.55
2019-03-16T09:01:44.119Z,31.42
2019-03-16T09:04:15.076Z,34.75
2019-03-16T09:06:47.426Z,34.13
2019-03-16T09:09:19.081Z,34.90
2019-03-16T09:11:50.009Z,32.63
2019-03-16T09:14:21.130Z,34.15
2019-03-16T09:16:52.135Z,35.48
2019-03-16T09:19:23.324Z,33.18
2019-03-16T09:21:57.167Z,36.45
2019-03-16T09:24:28.916Z,35.23
2019-03-16T09:27:00.411Z,37.70
2019-03-16T09:29:31.387Z,36.20
2019-03-16T09:32:02.849Z,36.73
2019-03-16T09:34:38.445Z,31.25
2019-03-16T09:37:11.618Z,35.17
2019-03-16T09:39:42.277Z,39.55
2019-03-16T09:42:13.217Z,42.15
2019-03-16T09:44:44.382Z,41.77
2019-03-16T09:47:19.893Z,38.63
2019-03-16T09:49:51.034Z,43.17
2019-03-16T09:52:21.900Z,37.67
2019-03-16T09:54:53.012Z,38.02
2019-03-16T09:57:23.872Z,36.03
2019-03-16T09:59:56.019Z,39.40
2019-03-16T10:02:32.469Z,41.45
2019-03-16T10:05:07.163Z,35.13
2019-03-16T10:17:20.160Z,39.15
2019-03-16T10:19:58.743Z,47.53
2019-03-16T10:22:31.729Z,38.98
2019-03-16T10:25:03.603Z,39.92
2019-03-16T10:27:35.607Z,37.53
2019-03-16T10:30:10.228Z,39.00
2019-03-16T10:32:41.346Z,43.30
2019-03-16T10:35:12.768Z,40.08
2019-03-16T10:37:45.287Z,40.83
2019-03-16T10:40:16.715Z,42.70
2019-03-16T10:42:47.849Z,40.75
2019-03-16T10:45:18.902Z,42.78
2019-03-16T10:47:50.291Z,37.70
2019-03-16T10:50:21.176Z,38.23
2019-03-16T10:52:52.050Z,39.58
2019-03-16T10:55:22.932Z,39.15
2019-03-16T10:57:53.835Z,41.60
2019-03-16T11:00:25.664Z,41.83
2019-03-16T11:02:56.789Z,48.00
2019-03-16T11:05:28.633Z,43.30
2019-03-16T11:07:59.836Z,43.10
2019-03-16T11:10:30.623Z,42.70
2019-03-16T11:13:01.447Z,46.70
2019-03-16T11:15:32.527Z,42.93
2019-03-16T11:18:04.656Z,43.50
2019-03-16T11:20:35.850Z,43.68
2019-03-16T11:23:06.962Z,47.30
2019-03-16T11:25:38.793Z,46.63
2019-03-16T11:28:11.081Z,45.88
2019-03-16T11:30:42.157Z,45.25
2019-03-16T11:33:13.064Z,43.38
2019-03-16T11:35:44.116Z,51.85
2019-03-16T11:38:18.227Z,57.00
2019-03-16T11:40:49.416Z,63.33
2019-03-16T11:43:20.133Z,63.23
2019-03-16T11:45:51.999Z,61.23
2019-03-16T11:48:23.006Z,54.58
2019-03-16T11:50:54.064Z,52.70
2019-03-16T11:53:25.126Z,49.83
2019-03-16T11:55:56.275Z,49.93
2019-03-16T11:58:28.496Z,51.68
2019-03-16T12:00:59.443Z,45.45
2019-03-16T12:03:30.240Z,46.00
2019-03-16T12:06:01.267Z,45.98
2019-03-16T12:08:32.207Z,47.70
2019-03-16T12:11:03.371Z,45.43
2019-03-16T12:13:34.324Z,49.75
2019-03-16T12:16:06.530Z,54.30
2019-03-16T12:18:38.821Z,48.25
2019-03-16T12:21:09.769Z,48.65
2019-03-16T12:23:40.844Z,41.10
2019-03-16T12:26:12.965Z,44.73
2019-03-16T12:28:44.336Z,54.33
2019-03-16T12:31:15.311Z,50.45
2019-03-16T12:33:46.243Z,51.90
2019-03-16T12:36:17.405Z,50.38
2019-03-16T12:38:48.179Z,52.67
2019-03-16T12:41:19.445Z,55.43
2019-03-16T12:43:50.272Z,52.88
2019-03-16T12:46:21.079Z,49.03
2019-03-16T12:48:52.297Z,52.20
2019-03-16T12:51:23.227Z,54.53
2019-03-16T12:53:54.261Z,53.70
2019-03-16T12:56:25.540Z,54.42
2019-03-16T12:58:56.596Z,52.85
2019-03-16T13:01:27.623Z,50.43
2019-03-16T13:03:58.693Z,55.10
2019-03-16T13:06:29.648Z,53.40
2019-03-16T13:09:01.897Z,51.00
2019-03-16T13:11:32.755Z,46.58
2019-03-16T13:14:15.771Z,51.55
2019-03-16T13:16:47.164Z,49.58
2019-03-16T13:19:17.939Z,55.88
2019-03-16T13:21:49.001Z,53.90
2019-03-16T13:24:20.299Z,53.10
2019-03-16T13:26:51.072Z,53.08
2019-03-16T13:29:22.141Z,53.13
2019-03-16T13:31:52.921Z,50.12
2019-03-16T13:34:23.885Z,55.20
2019-03-16T13:36:54.639Z,56.95
2019-03-16T13:39:25.873Z,60.12
2019-03-16T13:41:56.895Z,57.78
2019-03-16T13:44:27.898Z,56.68
2019-03-16T13:46:58.825Z,54.65
2019-03-16T13:49:29.799Z,55.40
2019-03-16T13:52:00.967Z,54.58
2019-03-16T13:54:32.356Z,54.83
2019-03-16T13:57:03.539Z,56.63
2019-03-16T13:59:35.887Z,88.10
2019-03-16T14:02:07.233Z,59.40
2019-03-16T14:04:39.225Z,59.35
2019-03-16T14:07:11.918Z,62.25
2019-03-16T14:09:44.184Z,58.52
2019-03-16T14:12:16.101Z,59.88
2019-03-16T14:14:49.916Z,58.78
2019-03-16T14:17:31.643Z,59.25
2019-03-16T14:20:03.574Z,59.83
2019-03-16T14:22:37.504Z,61.00
2019-03-16T14:25:10.513Z,56.73
2019-03-16T14:27:42.954Z,57.90
2019-03-16T14:30:34.806Z,57.40
2019-03-16T14:32:52.694Z,56.85
2019-03-16T14:35:25.171Z,59.27
2019-03-16T14:37:58.332Z,65.15
2019-03-16T14:40:29.981Z,60.52
2019-03-16T14:43:01.951Z,63.90
2019-03-16T14:45:34.162Z,67.27
2019-03-16T14:48:08.363Z,65.83
2019-03-16T14:50:44.994Z,61.85
2019-03-16T14:53:16.069Z,70.12
2019-03-16T14:55:48.449Z,63.15
2019-03-16T14:58:22.020Z,62.90
2019-03-16T15:00:53.911Z,65.78
2019-03-16T15:03:25.004Z,63.08
2019-03-16T15:05:57.248Z,62.55
2019-03-16T15:08:31.060Z,65.35
2019-03-16T15:11:02.254Z,61.05
2019-03-16T15:13:35.377Z,60.85
2019-03-16T15:16:06.711Z,56.42
2019-03-16T15:18:40.255Z,60.38
2019-03-16T15:21:11.254Z,61.58
2019-03-16T15:23:43.151Z,61.00
2019-03-16T15:26:14.187Z,60.98
2019-03-16T15:28:55.058Z,57.08
2019-03-16T15:31:28.568Z,60.17
2019-03-16T15:34:02.309Z,68.05
2019-03-16T15:36:33.263Z,61.85
2019-03-16T15:39:05.499Z,59.08
2019-03-16T15:41:36.632Z,63.10
2019-03-16T15:44:07.676Z,62.40
2019-03-16T15:46:39.887Z,58.80
2019-03-16T15:49:10.770Z,62.93
2019-03-16T15:51:44.161Z,61.05
2019-03-16T15:54:15.507Z,62.58
2019-03-16T15:56:46.448Z,63.85
2019-03-16T15:59:17.147Z,58.85
2019-03-16T16:01:48.558Z,58.25
2019-03-16T16:04:20.635Z,58.30
2019-03-16T16:06:54.811Z,60.98
2019-03-16T16:09:26.225Z,59.15
2019-03-16T16:11:57.495Z,59.20
2019-03-16T16:14:28.653Z,58.20
2019-03-16T16:16:59.981Z,58.83
2019-03-16T16:19:32.645Z,67.95
2019-03-16T16:22:04.842Z,63.55
2019-03-16T16:24:36.566Z,64.20
2019-03-16T16:27:08.350Z,59.20
2019-03-16T16:29:39.249Z,64.03
2019-03-16T16:32:10.488Z,62.73
2019-03-16T16:34:41.665Z,61.30
2019-03-16T16:37:13.560Z,64.22
2019-03-16T16:39:44.494Z,59.55
2019-03-16T16:42:15.339Z,61.02
2019-03-16T16:44:46.588Z,62.95
2019-03-16T16:47:17.451Z,64.85
2019-03-16T16:49:48.473Z,74.82
2019-03-16T16:52:19.284Z,61.63
2019-03-16T16:54:50.256Z,64.47
2019-03-16T16:57:21.322Z,64.85
2019-03-16T16:59:52.348Z,65.65
2019-03-16T17:02:23.217Z,68.83
2019-03-16T17:04:54.257Z,64.53
2019-03-16T17:07:25.966Z,68.07
2019-03-16T17:09:57.079Z,73.97
2019-03-16T17:12:27.988Z,71.17
2019-03-16T17:14:59.235Z,66.07
2019-03-16T17:17:35.227Z,68.35
2019-03-16T17:20:02.335Z,61.80
2019-03-16T17:22:33.174Z,69.37
2019-03-16T17:25:04.109Z,67.37
2019-03-16T17:27:35.095Z,68.45
2019-03-16T17:30:07.612Z,70.72
2019-03-16T17:32:38.581Z,63.78
2019-03-16T17:35:11.219Z,65.10
2019-03-16T17:37:42.254Z,70.05
2019-03-16T17:40:14.824Z,68.28
2019-03-16T17:42:45.841Z,62.05
2019-03-16T17:45:17.085Z,61.92
2019-03-16T17:47:48.051Z,66.00
2019-03-16T17:50:19.405Z,68.97
2019-03-16T17:52:50.552Z,67.30
2019-03-16T17:55:22.107Z,67.15
2019-03-16T17:57:53.020Z,59.58
2019-03-16T18:00:24.059Z,62.38
2019-03-16T18:02:55.010Z,68.60
2019-03-16T18:05:26.016Z,69.07
2019-03-16T18:07:56.990Z,65.17
2019-03-16T18:10:27.679Z,64.97
2019-03-16T18:12:58.382Z,64.27
2019-03-16T18:15:29.314Z,63.83
2019-03-16T18:18:00.225Z,71.60
2019-03-16T18:20:31.278Z,71.30
2019-03-16T18:23:02.200Z,68.65
2019-03-16T18:25:32.968Z,79.20
2019-03-16T18:28:04.044Z,83.07
2019-03-16T18:30:35.290Z,95.12
2019-03-16T18:33:06.219Z,91.45
2019-03-16T18:35:37.119Z,88.60
2019-03-16T18:38:08.280Z,95.40
2019-03-16T18:40:39.040Z,90.77
2019-03-16T18:43:10.106Z,88.07
2019-03-16T18:45:41.016Z,85.92
2019-03-16T18:48:12.153Z,81.32
2019-03-16T18:50:43.036Z,85.17
2019-03-16T18:53:14.273Z,81.28
2019-03-16T18:55:45.179Z,79.87
2019-03-16T18:58:16.145Z,91.00
2019-03-16T19:00:47.083Z,85.40
2019-03-16T19:03:18.132Z,81.32
2019-03-16T19:05:49.620Z,79.05
2019-03-16T19:08:20.443Z,78.00
2019-03-16T19:10:53.203Z,80.45
2019-03-16T19:13:23.751Z,78.00
2019-03-16T19:15:54.827Z,81.12
2019-03-16T19:18:26.129Z,80.80
2019-03-16T19:20:57.057Z,83.97
2019-03-16T19:23:28.135Z,80.30
2019-03-16T19:25:59.086Z,87.97
2019-03-16T19:28:30.064Z,83.75
2019-03-16T19:31:00.992Z,94.17
2019-03-16T19:33:32.156Z,89.90
2019-03-16T19:36:02.925Z,86.50
2019-03-16T19:38:33.852Z,87.82
2019-03-16T19:41:05.031Z,85.87
2019-03-16T19:43:35.771Z,81.72
2019-03-16T19:46:06.869Z,82.42
2019-03-16T19:48:38.857Z,86.22
2019-03-16T19:51:09.779Z,85.57
2019-03-16T19:53:40.714Z,82.82
2019-03-16T19:56:11.766Z,89.70
2019-03-16T19:58:42.734Z,85.38
2019-03-16T20:01:13.659Z,87.78
2019-03-16T20:03:44.839Z,91.97
2019-03-16T20:06:25.767Z,89.20
2019-03-16T20:08:50.668Z,92.50
2019-03-16T20:11:21.812Z,85.62
2019-03-16T20:13:52.981Z,85.12
2019-03-16T20:16:24.255Z,90.62
2019-03-16T20:18:55.284Z,87.80
2019-03-16T20:21:26.267Z,84.77
2019-03-16T20:23:57.357Z,85.50
2019-03-16T20:26:28.446Z,83.97
2019-03-16T20:28:59.474Z,88.03
2019-03-16T20:31:30.283Z,80.62
2019-03-16T20:34:03.135Z,81.32
2019-03-16T20:36:33.951Z,81.02
2019-03-16T20:39:05.883Z,87.60
2019-03-16T20:41:36.917Z,84.22
2019-03-16T20:44:08.086Z,91.78
2019-03-16T20:46:39.094Z,84.35
2019-03-16T20:49:09.867Z,81.17
2019-03-16T20:51:41.147Z,80.07
2019-03-16T20:54:12.079Z,73.12
2019-03-16T20:56:43.128Z,78.50
2019-03-16T20:59:14.075Z,73.50
2019-03-16T21:01:44.939Z,69.62
2019-03-16T21:04:15.861Z,71.30
2019-03-16T21:06:48.071Z,74.22
2019-03-16T21:09:18.954Z,68.72
2019-03-16T21:11:50.047Z,72.35
2019-03-16T21:14:21.821Z,68.12
2019-03-16T21:19:21.639Z,70.45
2019-03-16T21:21:52.846Z,73.97
2019-03-16T21:24:23.683Z,69.45
2019-03-16T21:26:56.032Z,70.47
2019-03-16T21:29:26.952Z,74.82
2019-03-16T21:31:57.884Z,72.35
2019-03-16T21:34:30.103Z,71.40
2019-03-16T21:37:09.927Z,77.37
2019-03-16T21:39:40.946Z,68.42
2019-03-16T21:42:11.718Z,70.65
2019-03-16T21:44:42.821Z,76.75
2019-03-16T21:47:13.955Z,75.67
2019-03-16T21:49:44.862Z,74.22
2019-03-16T21:52:16.655Z,76.87
2019-03-16T21:54:49.943Z,81.80
2019-03-16T21:57:21.511Z,72.47
2019-03-16T21:59:53.618Z,73.60
2019-03-16T22:02:24.753Z,77.53
2019-03-16T22:04:55.768Z,72.10
2019-03-16T22:07:26.650Z,75.32
2019-03-16T22:09:57.620Z,74.82
2019-03-16T22:12:28.756Z,77.03
2019-03-16T22:14:59.596Z,72.40
2019-03-16T22:17:30.704Z,74.35
2019-03-16T22:20:01.667Z,68.55
2019-03-16T22:22:32.584Z,70.40
2019-03-16T22:25:03.813Z,68.57
2019-03-16T22:27:34.967Z,69.37
2019-03-16T22:30:07.694Z,67.87
2019-03-16T22:32:38.661Z,66.30
2019-03-16T22:35:09.985Z,67.17
2019-03-16T22:37:59.867Z,70.08
2019-03-16T22:40:31.048Z,63.63
2019-03-16T22:43:01.985Z,62.40
2019-03-16T22:45:33.069Z,58.85
2019-03-16T22:48:04.209Z,59.03
2019-03-16T22:50:35.505Z,61.53
2019-03-16T22:53:08.605Z,60.67
2019-03-16T22:55:39.761Z,58.30
2019-03-16T22:58:10.574Z,62.75
2019-03-16T23:00:43.371Z,62.23
2019-03-16T23:03:14.825Z,62.58
2019-03-16T23:05:45.832Z,60.48
2019-03-16T23:08:16.648Z,63.60
2019-03-16T23:10:47.589Z,59.38
2019-03-16T23:13:18.866Z,62.67
2019-03-16T23:15:49.835Z,60.00
2019-03-16T23:18:21.090Z,67.90
2019-03-16T23:20:51.989Z,57.58
2019-03-16T23:23:23.233Z,63.15
2019-03-16T23:25:54.162Z,63.38
2019-03-16T23:28:25.168Z,60.98
2019-03-16T23:30:56.242Z,62.00
2019-03-16T23:33:27.160Z,58.75
2019-03-16T23:35:58.261Z,60.30
2019-03-16T23:38:28.934Z,62.83
2019-03-16T23:41:00.072Z,66.82
2019-03-16T23:43:31.232Z,62.80
2019-03-16T23:46:02.073Z,62.83
2019-03-16T23:48:33.275Z,71.47
2019-03-16T23:51:09.480Z,68.52
2019-03-16T23:53:40.615Z,63.50
2019-03-16T23:56:12.700Z,66.90
2019-03-16T23:58:45.844Z,68.33
